sensor_id;sensor_type;location;lat;lon;timestamp;P1;durP1;ratioP1;P2;durP2;ratioP2
62990;SDS011;49084;48.204;16.202;2023-02-27T00:01:23;6.35;;;2.60;;
62990;SDS011;49084;48.204;16.202;2023-02-27T00:03:48;12.10;;;4.47;;
62990;SDS011;49084;48.204;16.202;2023-02-27T00:06:14;3.67;;;2.10;;
62990;SDS011;49084;48.204;16.202;2023-02-27T00:08:41;6.30;;;2.45;;
62990;SDS011;49084;48.204;16.202;2023-02-27T00:11:08;12.10;;;3.40;;
62990;SDS011;49084;48.204;16.202;2023-02-27T00:13:34;7.50;;;3.50;;
62990;SDS011;49084;48.204;16.202;2023-02-27T00:15:59;6.95;;;2.95;;
62990;SDS011;49084;48.204;16.202;2023-02-27T00:18:25;9.27;;;3.63;;
62990;SDS011;49084;48.204;16.202;2023-02-27T00:20:51;7.38;;;3.28;;
62990;SDS011;49084;48.204;16.202;2023-02-27T00:23:16;4.60;;;3.15;;
62990;SDS011;49084;48.204;16.202;2023-02-27T00:25:42;4.93;;;2.72;;
62990;SDS011;49084;48.204;16.202;2023-02-27T00:28:08;4.40;;;2.97;;
62990;SDS011;49084;48.204;16.202;2023-02-27T00:30:33;4.22;;;2.50;;
62990;SDS011;49084;48.204;16.202;2023-02-27T00:32:59;8.43;;;3.15;;
62990;SDS011;49084;48.204;16.202;2023-02-27T00:35:25;3.95;;;2.47;;
62990;SDS011;49084;48.204;16.202;2023-02-27T00:37:50;3.30;;;2.15;;
62990;SDS011;49084;48.204;16.202;2023-02-27T00:40:16;6.82;;;3.17;;
62990;SDS011;49084;48.204;16.202;2023-02-27T00:42:42;4.88;;;2.70;;
62990;SDS011;49084;48.204;16.202;2023-02-27T00:45:08;5.85;;;2.88;;
62990;SDS011;49084;48.204;16.202;2023-02-27T00:47:34;5.85;;;3.13;;
62990;SDS011;49084;48.204;16.202;2023-02-27T00:50:00;3.97;;;2.35;;
62990;SDS011;49084;48.204;16.202;2023-02-27T00:52:26;3.92;;;2.70;;
62990;SDS011;49084;48.204;16.202;2023-02-27T00:54:51;5.88;;;3.17;;
62990;SDS011;49084;48.204;16.202;2023-02-27T00:57:17;8.15;;;2.75;;
62990;SDS011;49084;48.204;16.202;2023-02-27T00:59:44;7.18;;;3.42;;
62990;SDS011;49084;48.204;16.202;2023-02-27T01:02:10;8.07;;;2.35;;
62990;SDS011;49084;48.204;16.202;2023-02-27T01:04:36;5.07;;;2.72;;
62990;SDS011;49084;48.204;16.202;2023-02-27T01:07:02;5.57;;;2.80;;
62990;SDS011;49084;48.204;16.202;2023-02-27T01:09:27;6.43;;;2.83;;
62990;SDS011;49084;48.204;16.202;2023-02-27T01:11:53;6.75;;;2.85;;
62990;SDS011;49084;48.204;16.202;2023-02-27T01:14:19;4.65;;;2.35;;
62990;SDS011;49084;48.204;16.202;2023-02-27T01:16:45;6.97;;;2.88;;
62990;SDS011;49084;48.204;16.202;2023-02-27T01:19:10;6.05;;;2.92;;
62990;SDS011;49084;48.204;16.202;2023-02-27T01:21:36;4.75;;;2.20;;
62990;SDS011;49084;48.204;16.202;2023-02-27T01:24:02;3.20;;;2.30;;
62990;SDS011;49084;48.204;16.202;2023-02-27T01:26:28;2.47;;;2.15;;
62990;SDS011;49084;48.204;16.202;2023-02-27T01:28:53;4.53;;;2.20;;
62990;SDS011;49084;48.204;16.202;2023-02-27T01:31:19;3.88;;;1.98;;
62990;SDS011;49084;48.204;16.202;2023-02-27T01:33:45;3.33;;;2.28;;
62990;SDS011;49084;48.204;16.202;2023-02-27T01:36:12;4.15;;;2.30;;
62990;SDS011;49084;48.204;16.202;2023-02-27T01:38:38;2.58;;;2.08;;
62990;SDS011;49084;48.204;16.202;2023-02-27T01:41:04;8.27;;;2.85;;
62990;SDS011;49084;48.204;16.202;2023-02-27T01:43:31;6.40;;;2.58;;
62990;SDS011;49084;48.204;16.202;2023-02-27T01:45:57;3.95;;;2.35;;
62990;SDS011;49084;48.204;16.202;2023-02-27T01:48:29;3.30;;;2.03;;
62990;SDS011;49084;48.204;16.202;2023-02-27T01:51:06;4.70;;;2.00;;
62990;SDS011;49084;48.204;16.202;2023-02-27T01:53:38;6.45;;;2.25;;
62990;SDS011;49084;48.204;16.202;2023-02-27T01:56:11;3.92;;;2.10;;
62990;SDS011;49084;48.204;16.202;2023-02-27T01:58:40;3.53;;;1.92;;
62990;SDS011;49084;48.204;16.202;2023-02-27T02:01:07;5.88;;;1.80;;
62990;SDS011;49084;48.204;16.202;2023-02-27T02:06:01;4.35;;;2.13;;
62990;SDS011;49084;48.204;16.202;2023-02-27T02:10:58;6.53;;;2.67;;
62990;SDS011;49084;48.204;16.202;2023-02-27T02:13:24;7.63;;;2.20;;
62990;SDS011;49084;48.204;16.202;2023-02-27T02:22:12;3.90;;;2.13;;
62990;SDS011;49084;48.204;16.202;2023-02-27T02:28:14;3.97;;;1.80;;
62990;SDS011;49084;48.204;16.202;2023-02-27T02:42:15;4.40;;;2.15;;
62990;SDS011;49084;48.204;16.202;2023-02-27T02:44:57;4.07;;;2.20;;
62990;SDS011;49084;48.204;16.202;2023-02-27T02:50:12;2.35;;;1.23;;
62990;SDS011;49084;48.204;16.202;2023-02-27T02:53:12;5.90;;;2.58;;
62990;SDS011;49084;48.204;16.202;2023-02-27T02:58:36;3.90;;;2.17;;
62990;SDS011;49084;48.204;16.202;2023-02-27T03:01:32;4.80;;;2.25;;
62990;SDS011;49084;48.204;16.202;2023-02-27T03:04:07;5.65;;;2.35;;
62990;SDS011;49084;48.204;16.202;2023-02-27T03:06:42;3.78;;;1.88;;
62990;SDS011;49084;48.204;16.202;2023-02-27T03:12:08;4.03;;;2.40;;
62990;SDS011;49084;48.204;16.202;2023-02-27T03:14:41;5.05;;;1.60;;
62990;SDS011;49084;48.204;16.202;2023-02-27T03:17:16;3.38;;;1.63;;
62990;SDS011;49084;48.204;16.202;2023-02-27T03:19:58;3.95;;;2.53;;
62990;SDS011;49084;48.204;16.202;2023-02-27T03:22:29;5.45;;;1.90;;
62990;SDS011;49084;48.204;16.202;2023-02-27T03:24:59;5.30;;;2.10;;
62990;SDS011;49084;48.204;16.202;2023-02-27T03:27:29;5.47;;;2.40;;
62990;SDS011;49084;48.204;16.202;2023-02-27T03:32:45;5.45;;;2.08;;
62990;SDS011;49084;48.204;16.202;2023-02-27T03:35:18;3.47;;;1.67;;
62990;SDS011;49084;48.204;16.202;2023-02-27T03:38:00;7.45;;;2.15;;
62990;SDS011;49084;48.204;16.202;2023-02-27T03:40:37;5.85;;;1.95;;
62990;SDS011;49084;48.204;16.202;2023-02-27T03:43:15;4.45;;;1.98;;
62990;SDS011;49084;48.204;16.202;2023-02-27T03:46:21;3.28;;;1.75;;
62990;SDS011;49084;48.204;16.202;2023-02-27T03:48:46;4.97;;;2.58;;
62990;SDS011;49084;48.204;16.202;2023-02-27T03:51:16;5.20;;;2.20;;
62990;SDS011;49084;48.204;16.202;2023-02-27T03:59:26;3.40;;;2.30;;
62990;SDS011;49084;48.204;16.202;2023-02-27T04:01:53;3.92;;;1.73;;
62990;SDS011;49084;48.204;16.202;2023-02-27T04:04:20;3.47;;;1.80;;
62990;SDS011;49084;48.204;16.202;2023-02-27T04:06:48;3.47;;;1.90;;
62990;SDS011;49084;48.204;16.202;2023-02-27T04:09:42;5.68;;;1.90;;
62990;SDS011;49084;48.204;16.202;2023-02-27T04:17:27;8.95;;;1.95;;
62990;SDS011;49084;48.204;16.202;2023-02-27T04:22:50;5.88;;;2.38;;
62990;SDS011;49084;48.204;16.202;2023-02-27T04:28:24;4.45;;;1.95;;
62990;SDS011;49084;48.204;16.202;2023-02-27T04:36:25;7.07;;;2.22;;
62990;SDS011;49084;48.204;16.202;2023-02-27T04:39:03;11.88;;;2.75;;
62990;SDS011;49084;48.204;16.202;2023-02-27T04:41:43;6.00;;;2.10;;
62990;SDS011;49084;48.204;16.202;2023-02-27T04:44:14;8.13;;;2.25;;
62990;SDS011;49084;48.204;16.202;2023-02-27T04:46:42;4.55;;;1.88;;
62990;SDS011;49084;48.204;16.202;2023-02-27T04:51:41;6.25;;;1.98;;
62990;SDS011;49084;48.204;16.202;2023-02-27T04:54:15;5.78;;;2.80;;
62990;SDS011;49084;48.204;16.202;2023-02-27T04:56:48;4.22;;;2.08;;
62990;SDS011;49084;48.204;16.202;2023-02-27T04:59:19;4.20;;;2.08;;
62990;SDS011;49084;48.204;16.202;2023-02-27T05:02:01;6.50;;;2.08;;
62990;SDS011;49084;48.204;16.202;2023-02-27T05:04:34;4.80;;;2.15;;
62990;SDS011;49084;48.204;16.202;2023-02-27T05:07:04;7.60;;;2.15;;
62990;SDS011;49084;48.204;16.202;2023-02-27T05:12:15;4.80;;;2.15;;
62990;SDS011;49084;48.204;16.202;2023-02-27T05:18:12;5.88;;;2.20;;
62990;SDS011;49084;48.204;16.202;2023-02-27T05:24:35;4.03;;;2.30;;
62990;SDS011;49084;48.204;16.202;2023-02-27T05:35:00;5.47;;;2.50;;
62990;SDS011;49084;48.204;16.202;2023-02-27T05:37:37;7.00;;;3.08;;
62990;SDS011;49084;48.204;16.202;2023-02-27T05:40:09;7.47;;;2.50;;
62990;SDS011;49084;48.204;16.202;2023-02-27T05:42:40;7.07;;;2.00;;
62990;SDS011;49084;48.204;16.202;2023-02-27T05:45:16;7.07;;;2.15;;
62990;SDS011;49084;48.204;16.202;2023-02-27T05:47:46;5.82;;;2.38;;
62990;SDS011;49084;48.204;16.202;2023-02-27T05:50:20;4.60;;;2.20;;
62990;SDS011;49084;48.204;16.202;2023-02-27T05:52:50;8.88;;;2.40;;
62990;SDS011;49084;48.204;16.202;2023-02-27T05:55:23;3.35;;;2.00;;
62990;SDS011;49084;48.204;16.202;2023-02-27T05:58:33;5.63;;;2.22;;
62990;SDS011;49084;48.204;16.202;2023-02-27T06:00:57;4.70;;;1.90;;
62990;SDS011;49084;48.204;16.202;2023-02-27T06:03:26;6.65;;;2.13;;
62990;SDS011;49084;48.204;16.202;2023-02-27T06:05:53;4.32;;;2.03;;
62990;SDS011;49084;48.204;16.202;2023-02-27T06:08:22;4.40;;;2.05;;
62990;SDS011;49084;48.204;16.202;2023-02-27T06:10:48;4.50;;;2.28;;
62990;SDS011;49084;48.204;16.202;2023-02-27T06:13:14;7.95;;;2.45;;
62990;SDS011;49084;48.204;16.202;2023-02-27T06:15:41;5.85;;;2.20;;
62990;SDS011;49084;48.204;16.202;2023-02-27T06:18:08;7.53;;;2.42;;
62990;SDS011;49084;48.204;16.202;2023-02-27T06:20:35;4.85;;;2.40;;
62990;SDS011;49084;48.204;16.202;2023-02-27T06:23:01;7.45;;;2.55;;
62990;SDS011;49084;48.204;16.202;2023-02-27T06:25:26;6.30;;;2.42;;
62990;SDS011;49084;48.204;16.202;2023-02-27T06:27:52;3.47;;;1.92;;
62990;SDS011;49084;48.204;16.202;2023-02-27T06:30:18;4.05;;;2.42;;
62990;SDS011;49084;48.204;16.202;2023-02-27T06:32:44;4.85;;;1.98;;
62990;SDS011;49084;48.204;16.202;2023-02-27T06:35:10;5.25;;;2.08;;
62990;SDS011;49084;48.204;16.202;2023-02-27T06:37:35;8.48;;;2.47;;
62990;SDS011;49084;48.204;16.202;2023-02-27T06:40:01;3.08;;;1.98;;
62990;SDS011;49084;48.204;16.202;2023-02-27T06:42:29;4.00;;;2.17;;
62990;SDS011;49084;48.204;16.202;2023-02-27T06:44:56;4.45;;;1.85;;
62990;SDS011;49084;48.204;16.202;2023-02-27T06:47:21;7.55;;;3.38;;
62990;SDS011;49084;48.204;16.202;2023-02-27T06:49:47;9.07;;;2.65;;
62990;SDS011;49084;48.204;16.202;2023-02-27T06:52:13;6.68;;;2.45;;
62990;SDS011;49084;48.204;16.202;2023-02-27T06:54:39;7.80;;;2.67;;
62990;SDS011;49084;48.204;16.202;2023-02-27T06:57:04;4.47;;;2.90;;
62990;SDS011;49084;48.204;16.202;2023-02-27T06:59:30;5.30;;;2.28;;
62990;SDS011;49084;48.204;16.202;2023-02-27T07:01:57;7.85;;;2.95;;
62990;SDS011;49084;48.204;16.202;2023-02-27T07:04:24;5.45;;;2.92;;
62990;SDS011;49084;48.204;16.202;2023-02-27T07:06:50;7.22;;;3.22;;
62990;SDS011;49084;48.204;16.202;2023-02-27T07:09:16;10.10;;;5.25;;
62990;SDS011;49084;48.204;16.202;2023-02-27T07:11:42;10.65;;;3.20;;
62990;SDS011;49084;48.204;16.202;2023-02-27T07:14:08;6.28;;;3.28;;
62990;SDS011;49084;48.204;16.202;2023-02-27T07:16:34;7.55;;;3.08;;
62990;SDS011;49084;48.204;16.202;2023-02-27T07:18:59;6.32;;;2.47;;
62990;SDS011;49084;48.204;16.202;2023-02-27T07:21:25;8.50;;;3.40;;
62990;SDS011;49084;48.204;16.202;2023-02-27T07:23:51;7.97;;;3.03;;
62990;SDS011;49084;48.204;16.202;2023-02-27T07:26:16;9.90;;;3.45;;
62990;SDS011;49084;48.204;16.202;2023-02-27T07:28:42;7.20;;;3.58;;
62990;SDS011;49084;48.204;16.202;2023-02-27T07:31:08;6.63;;;3.58;;
62990;SDS011;49084;48.204;16.202;2023-02-27T07:33:33;9.27;;;3.42;;
62990;SDS011;49084;48.204;16.202;2023-02-27T07:35:59;11.25;;;3.75;;
62990;SDS011;49084;48.204;16.202;2023-02-27T07:38:25;6.60;;;3.00;;
62990;SDS011;49084;48.204;16.202;2023-02-27T07:40:52;7.78;;;2.55;;
62990;SDS011;49084;48.204;16.202;2023-02-27T07:43:19;9.38;;;3.40;;
62990;SDS011;49084;48.204;16.202;2023-02-27T07:45:44;7.65;;;3.47;;
62990;SDS011;49084;48.204;16.202;2023-02-27T07:48:10;9.55;;;3.15;;
62990;SDS011;49084;48.204;16.202;2023-02-27T07:50:36;6.32;;;2.42;;
62990;SDS011;49084;48.204;16.202;2023-02-27T07:53:02;10.52;;;3.22;;
62990;SDS011;49084;48.204;16.202;2023-02-27T07:55:29;6.88;;;2.70;;
62990;SDS011;49084;48.204;16.202;2023-02-27T07:57:55;5.00;;;2.55;;
62990;SDS011;49084;48.204;16.202;2023-02-27T08:00:21;3.38;;;2.28;;
62990;SDS011;49084;48.204;16.202;2023-02-27T08:02:47;4.90;;;2.40;;
62990;SDS011;49084;48.204;16.202;2023-02-27T08:05:13;4.28;;;2.40;;
62990;SDS011;49084;48.204;16.202;2023-02-27T08:07:39;3.47;;;2.47;;
62990;SDS011;49084;48.204;16.202;2023-02-27T08:10:05;4.93;;;2.22;;
62990;SDS011;49084;48.204;16.202;2023-02-27T08:12:31;3.47;;;2.30;;
62990;SDS011;49084;48.204;16.202;2023-02-27T08:14:57;4.22;;;2.63;;
62990;SDS011;49084;48.204;16.202;2023-02-27T08:17:22;3.95;;;2.15;;
62990;SDS011;49084;48.204;16.202;2023-02-27T08:19:48;5.65;;;2.83;;
62990;SDS011;49084;48.204;16.202;2023-02-27T08:22:13;3.22;;;2.00;;
62990;SDS011;49084;48.204;16.202;2023-02-27T08:24:39;3.75;;;2.15;;
62990;SDS011;49084;48.204;16.202;2023-02-27T08:27:06;7.18;;;2.70;;
62990;SDS011;49084;48.204;16.202;2023-02-27T08:29:31;10.10;;;3.97;;
62990;SDS011;49084;48.204;16.202;2023-02-27T08:31:58;3.90;;;2.42;;
62990;SDS011;49084;48.204;16.202;2023-02-27T08:34:24;4.75;;;2.22;;
62990;SDS011;49084;48.204;16.202;2023-02-27T08:36:50;6.22;;;2.03;;
62990;SDS011;49084;48.204;16.202;2023-02-27T08:39:16;4.13;;;2.58;;
62990;SDS011;49084;48.204;16.202;2023-02-27T08:41:42;4.30;;;2.10;;
62990;SDS011;49084;48.204;16.202;2023-02-27T08:44:11;6.97;;;2.20;;
62990;SDS011;49084;48.204;16.202;2023-02-27T08:46:37;6.40;;;1.92;;
62990;SDS011;49084;48.204;16.202;2023-02-27T08:49:03;3.17;;;1.92;;
62990;SDS011;49084;48.204;16.202;2023-02-27T08:51:28;4.82;;;2.22;;
62990;SDS011;49084;48.204;16.202;2023-02-27T08:53:54;5.25;;;2.30;;
62990;SDS011;49084;48.204;16.202;2023-02-27T08:56:23;3.38;;;1.33;;
62990;SDS011;49084;48.204;16.202;2023-02-27T08:58:50;8.32;;;2.15;;
62990;SDS011;49084;48.204;16.202;2023-02-27T09:01:16;4.10;;;1.75;;
62990;SDS011;49084;48.204;16.202;2023-02-27T09:03:42;9.32;;;1.80;;
62990;SDS011;49084;48.204;16.202;2023-02-27T09:06:08;4.97;;;2.20;;
62990;SDS011;49084;48.204;16.202;2023-02-27T09:08:34;2.65;;;1.50;;
62990;SDS011;49084;48.204;16.202;2023-02-27T09:11:00;5.25;;;2.08;;
62990;SDS011;49084;48.204;16.202;2023-02-27T09:13:26;4.25;;;1.35;;
62990;SDS011;49084;48.204;16.202;2023-02-27T09:15:53;2.13;;;1.27;;
62990;SDS011;49084;48.204;16.202;2023-02-27T09:18:18;2.40;;;1.40;;
62990;SDS011;49084;48.204;16.202;2023-02-27T09:20:44;2.40;;;1.20;;
62990;SDS011;49084;48.204;16.202;2023-02-27T09:23:10;5.47;;;1.35;;
62990;SDS011;49084;48.204;16.202;2023-02-27T09:25:36;10.57;;;1.98;;
62990;SDS011;49084;48.204;16.202;2023-02-27T09:28:01;3.97;;;1.10;;
62990;SDS011;49084;48.204;16.202;2023-02-27T09:30:27;2.35;;;1.13;;
62990;SDS011;49084;48.204;16.202;2023-02-27T09:32:53;1.80;;;1.13;;
62990;SDS011;49084;48.204;16.202;2023-02-27T09:35:19;4.50;;;1.00;;
62990;SDS011;49084;48.204;16.202;2023-02-27T09:37:45;2.85;;;1.02;;
62990;SDS011;49084;48.204;16.202;2023-02-27T09:40:18;5.43;;;1.63;;
62990;SDS011;49084;48.204;16.202;2023-02-27T09:42:48;4.88;;;1.05;;
62990;SDS011;49084;48.204;16.202;2023-02-27T09:45:25;4.07;;;0.82;;
62990;SDS011;49084;48.204;16.202;2023-02-27T09:47:58;1.17;;;0.73;;
62990;SDS011;49084;48.204;16.202;2023-02-27T09:50:58;3.60;;;0.65;;
62990;SDS011;49084;48.204;16.202;2023-02-27T09:55:51;1.52;;;1.42;;
62990;SDS011;49084;48.204;16.202;2023-02-27T10:01:20;3.40;;;1.10;;
62990;SDS011;49084;48.204;16.202;2023-02-27T10:07:03;3.08;;;0.98;;
62990;SDS011;49084;48.204;16.202;2023-02-27T10:17:55;1.20;;;0.82;;
62990;SDS011;49084;48.204;16.202;2023-02-27T10:20:31;4.15;;;1.00;;
62990;SDS011;49084;48.204;16.202;2023-02-27T10:23:02;3.50;;;1.27;;
62990;SDS011;49084;48.204;16.202;2023-02-27T10:25:38;5.15;;;1.83;;
62990;SDS011;49084;48.204;16.202;2023-02-27T10:28:13;2.88;;;1.23;;
62990;SDS011;49084;48.204;16.202;2023-02-27T10:30:40;2.25;;;1.17;;
62990;SDS011;49084;48.204;16.202;2023-02-27T10:33:18;5.03;;;1.48;;
62990;SDS011;49084;48.204;16.202;2023-02-27T10:35:51;1.58;;;1.10;;
62990;SDS011;49084;48.204;16.202;2023-02-27T10:38:33;3.40;;;1.33;;
62990;SDS011;49084;48.204;16.202;2023-02-27T10:41:03;4.35;;;1.33;;
62990;SDS011;49084;48.204;16.202;2023-02-27T10:43:30;1.40;;;1.17;;
62990;SDS011;49084;48.204;16.202;2023-02-27T10:45:59;3.72;;;1.40;;
62990;SDS011;49084;48.204;16.202;2023-02-27T10:48:26;1.95;;;1.00;;
62990;SDS011;49084;48.204;16.202;2023-02-27T10:50:51;5.80;;;0.90;;
62990;SDS011;49084;48.204;16.202;2023-02-27T10:56:01;5.75;;;1.17;;
62990;SDS011;49084;48.204;16.202;2023-02-27T10:58:30;1.23;;;0.90;;
62990;SDS011;49084;48.204;16.202;2023-02-27T11:00:59;1.60;;;0.98;;
62990;SDS011;49084;48.204;16.202;2023-02-27T11:03:45;1.17;;;1.00;;
62990;SDS011;49084;48.204;16.202;2023-02-27T11:06:19;3.22;;;1.23;;
62990;SDS011;49084;48.204;16.202;2023-02-27T11:11:53;10.90;;;1.38;;
62990;SDS011;49084;48.204;16.202;2023-02-27T11:14:24;2.40;;;1.50;;
62990;SDS011;49084;48.204;16.202;2023-02-27T11:16:56;4.10;;;1.38;;
62990;SDS011;49084;48.204;16.202;2023-02-27T11:19:24;3.83;;;1.33;;
62990;SDS011;49084;48.204;16.202;2023-02-27T11:21:59;1.95;;;1.30;;
62990;SDS011;49084;48.204;16.202;2023-02-27T11:24:26;2.85;;;0.93;;
62990;SDS011;49084;48.204;16.202;2023-02-27T11:27:03;2.42;;;1.13;;
62990;SDS011;49084;48.204;16.202;2023-02-27T11:29:53;2.47;;;1.38;;
62990;SDS011;49084;48.204;16.202;2023-02-27T11:32:22;2.13;;;1.20;;
62990;SDS011;49084;48.204;16.202;2023-02-27T11:34:50;3.30;;;1.35;;
62990;SDS011;49084;48.204;16.202;2023-02-27T11:37:22;2.60;;;1.08;;
62990;SDS011;49084;48.204;16.202;2023-02-27T11:42:40;3.55;;;1.30;;
62990;SDS011;49084;48.204;16.202;2023-02-27T11:47:58;1.77;;;1.23;;
62990;SDS011;49084;48.204;16.202;2023-02-27T11:55:52;4.95;;;1.80;;
62990;SDS011;49084;48.204;16.202;2023-02-27T11:58:20;2.60;;;1.73;;
62990;SDS011;49084;48.204;16.202;2023-02-27T12:00:51;3.92;;;2.20;;
62990;SDS011;49084;48.204;16.202;2023-02-27T12:03:46;3.92;;;1.83;;
62990;SDS011;49084;48.204;16.202;2023-02-27T12:06:18;3.38;;;1.30;;
62990;SDS011;49084;48.204;16.202;2023-02-27T12:08:48;1.48;;;1.38;;
62990;SDS011;49084;48.204;16.202;2023-02-27T12:13:53;10.35;;;1.65;;
62990;SDS011;49084;48.204;16.202;2023-02-27T12:16:33;3.47;;;1.63;;
62990;SDS011;49084;48.204;16.202;2023-02-27T12:19:20;5.75;;;1.88;;
62990;SDS011;49084;48.204;16.202;2023-02-27T12:21:51;2.35;;;1.58;;
62990;SDS011;49084;48.204;16.202;2023-02-27T12:24:22;3.28;;;1.85;;
62990;SDS011;49084;48.204;16.202;2023-02-27T12:30:01;2.10;;;1.42;;
62990;SDS011;49084;48.204;16.202;2023-02-27T12:32:41;3.78;;;1.58;;
62990;SDS011;49084;48.204;16.202;2023-02-27T12:37:59;4.75;;;1.70;;
62990;SDS011;49084;48.204;16.202;2023-02-27T12:40:36;1.33;;;1.23;;
62990;SDS011;49084;48.204;16.202;2023-02-27T12:45:55;6.15;;;1.70;;
62990;SDS011;49084;48.204;16.202;2023-02-27T12:54:01;3.67;;;1.67;;
62990;SDS011;49084;48.204;16.202;2023-02-27T13:06:52;1.88;;;1.10;;
62990;SDS011;49084;48.204;16.202;2023-02-27T13:11:57;1.95;;;1.30;;
62990;SDS011;49084;48.204;16.202;2023-02-27T13:17:09;3.28;;;1.60;;
62990;SDS011;49084;48.204;16.202;2023-02-27T13:20:04;3.65;;;1.67;;
62990;SDS011;49084;48.204;16.202;2023-02-27T13:22:53;1.88;;;1.60;;
62990;SDS011;49084;48.204;16.202;2023-02-27T13:25:39;3.10;;;1.70;;
62990;SDS011;49084;48.204;16.202;2023-02-27T13:28:11;3.30;;;1.85;;
62990;SDS011;49084;48.204;16.202;2023-02-27T13:30:44;2.83;;;1.52;;
62990;SDS011;49084;48.204;16.202;2023-02-27T13:33:23;4.30;;;1.58;;
62990;SDS011;49084;48.204;16.202;2023-02-27T13:43:54;2.15;;;1.65;;
62990;SDS011;49084;48.204;16.202;2023-02-27T13:51:40;3.20;;;1.45;;
62990;SDS011;49084;48.204;16.202;2023-02-27T13:57:05;3.63;;;1.92;;
62990;SDS011;49084;48.204;16.202;2023-02-27T14:04:37;3.20;;;1.40;;
62990;SDS011;49084;48.204;16.202;2023-02-27T14:07:18;4.13;;;1.67;;
62990;SDS011;49084;48.204;16.202;2023-02-27T14:09:48;2.90;;;1.13;;
62990;SDS011;49084;48.204;16.202;2023-02-27T14:12:27;2.88;;;1.52;;
62990;SDS011;49084;48.204;16.202;2023-02-27T14:17:48;2.35;;;1.20;;
62990;SDS011;49084;48.204;16.202;2023-02-27T14:25:49;4.68;;;1.60;;
62990;SDS011;49084;48.204;16.202;2023-02-27T14:33:54;5.68;;;2.08;;
62990;SDS011;49084;48.204;16.202;2023-02-27T14:36:26;5.65;;;2.22;;
62990;SDS011;49084;48.204;16.202;2023-02-27T14:38:58;4.78;;;2.65;;
62990;SDS011;49084;48.204;16.202;2023-02-27T14:44:03;4.10;;;1.83;;
62990;SDS011;49084;48.204;16.202;2023-02-27T14:46:38;4.68;;;1.50;;
62990;SDS011;49084;48.204;16.202;2023-02-27T14:49:50;3.03;;;2.22;;
62990;SDS011;49084;48.204;16.202;2023-02-27T14:51:55;4.25;;;1.92;;
62990;SDS011;49084;48.204;16.202;2023-02-27T14:54:25;4.18;;;1.80;;
62990;SDS011;49084;48.204;16.202;2023-02-27T14:56:58;5.93;;;1.77;;
62990;SDS011;49084;48.204;16.202;2023-02-27T15:04:26;3.63;;;1.80;;
62990;SDS011;49084;48.204;16.202;2023-02-27T15:06:53;9.02;;;1.80;;
62990;SDS011;49084;48.204;16.202;2023-02-27T15:09:37;6.40;;;1.83;;
62990;SDS011;49084;48.204;16.202;2023-02-27T15:12:07;4.00;;;1.60;;
62990;SDS011;49084;48.204;16.202;2023-02-27T15:14:40;7.60;;;2.08;;
62990;SDS011;49084;48.204;16.202;2023-02-27T15:19:47;2.58;;;1.70;;
62990;SDS011;49084;48.204;16.202;2023-02-27T15:22:24;4.05;;;1.80;;
62990;SDS011;49084;48.204;16.202;2023-02-27T15:24:55;10.23;;;2.20;;
62990;SDS011;49084;48.204;16.202;2023-02-27T15:27:23;4.75;;;1.63;;
62990;SDS011;49084;48.204;16.202;2023-02-27T15:29:56;3.15;;;1.60;;
62990;SDS011;49084;48.204;16.202;2023-02-27T15:34:52;3.55;;;1.77;;
62990;SDS011;49084;48.204;16.202;2023-02-27T15:37:21;4.38;;;2.10;;
62990;SDS011;49084;48.204;16.202;2023-02-27T15:39:50;5.47;;;2.80;;
62990;SDS011;49084;48.204;16.202;2023-02-27T15:42:18;3.17;;;1.85;;
62990;SDS011;49084;48.204;16.202;2023-02-27T15:44:47;6.22;;;2.00;;
62990;SDS011;49084;48.204;16.202;2023-02-27T15:47:24;4.03;;;1.73;;
62990;SDS011;49084;48.204;16.202;2023-02-27T15:50:05;4.78;;;1.85;;
62990;SDS011;49084;48.204;16.202;2023-02-27T15:52:58;5.60;;;2.00;;
62990;SDS011;49084;48.204;16.202;2023-02-27T15:55:30;3.47;;;1.85;;
62990;SDS011;49084;48.204;16.202;2023-02-27T15:57:59;5.45;;;1.73;;
62990;SDS011;49084;48.204;16.202;2023-02-27T16:00:26;4.00;;;1.85;;
62990;SDS011;49084;48.204;16.202;2023-02-27T16:02:55;5.53;;;2.22;;
62990;SDS011;49084;48.204;16.202;2023-02-27T16:05:32;3.03;;;1.70;;
62990;SDS011;49084;48.204;16.202;2023-02-27T16:08:00;1.25;;;1.15;;
62990;SDS011;49084;48.204;16.202;2023-02-27T16:10:28;5.65;;;2.47;;
62990;SDS011;49084;48.204;16.202;2023-02-27T16:13:17;4.03;;;1.70;;
62990;SDS011;49084;48.204;16.202;2023-02-27T16:16:36;4.55;;;2.30;;
62990;SDS011;49084;48.204;16.202;2023-02-27T16:18:51;5.07;;;2.53;;
62990;SDS011;49084;48.204;16.202;2023-02-27T16:21:22;5.10;;;2.33;;
62990;SDS011;49084;48.204;16.202;2023-02-27T16:23:50;5.13;;;2.50;;
62990;SDS011;49084;48.204;16.202;2023-02-27T16:26:32;5.43;;;2.30;;
62990;SDS011;49084;48.204;16.202;2023-02-27T16:29:06;4.50;;;2.47;;
62990;SDS011;49084;48.204;16.202;2023-02-27T16:31:47;6.82;;;3.03;;
62990;SDS011;49084;48.204;16.202;2023-02-27T16:37:01;7.05;;;2.90;;
62990;SDS011;49084;48.204;16.202;2023-02-27T16:39:28;6.55;;;2.72;;
62990;SDS011;49084;48.204;16.202;2023-02-27T16:41:55;4.30;;;2.45;;
62990;SDS011;49084;48.204;16.202;2023-02-27T16:44:23;5.65;;;2.45;;
62990;SDS011;49084;48.204;16.202;2023-02-27T16:46:50;6.88;;;2.67;;
62990;SDS011;49084;48.204;16.202;2023-02-27T16:49:18;7.28;;;2.90;;
62990;SDS011;49084;48.204;16.202;2023-02-27T16:51:44;5.22;;;2.47;;
62990;SDS011;49084;48.204;16.202;2023-02-27T16:54:10;4.60;;;2.40;;
62990;SDS011;49084;48.204;16.202;2023-02-27T16:56:37;8.35;;;2.75;;
62990;SDS011;49084;48.204;16.202;2023-02-27T16:59:04;6.53;;;3.20;;
62990;SDS011;49084;48.204;16.202;2023-02-27T17:01:31;4.97;;;2.65;;
62990;SDS011;49084;48.204;16.202;2023-02-27T17:03:56;5.22;;;3.10;;
62990;SDS011;49084;48.204;16.202;2023-02-27T17:06:24;7.32;;;3.33;;
62990;SDS011;49084;48.204;16.202;2023-02-27T17:08:50;6.03;;;3.03;;
62990;SDS011;49084;48.204;16.202;2023-02-27T17:11:15;7.85;;;3.17;;
62990;SDS011;49084;48.204;16.202;2023-02-27T17:13:43;8.05;;;4.47;;
62990;SDS011;49084;48.204;16.202;2023-02-27T17:16:10;9.27;;;3.50;;
62990;SDS011;49084;48.204;16.202;2023-02-27T17:18:37;8.57;;;3.90;;
62990;SDS011;49084;48.204;16.202;2023-02-27T17:21:03;6.85;;;4.75;;
62990;SDS011;49084;48.204;16.202;2023-02-27T17:23:29;9.27;;;3.67;;
62990;SDS011;49084;48.204;16.202;2023-02-27T17:25:55;7.18;;;4.50;;
62990;SDS011;49084;48.204;16.202;2023-02-27T17:28:21;8.88;;;3.90;;
62990;SDS011;49084;48.204;16.202;2023-02-27T17:30:49;16.77;;;6.93;;
62990;SDS011;49084;48.204;16.202;2023-02-27T17:33:15;9.85;;;4.30;;
62990;SDS011;49084;48.204;16.202;2023-02-27T17:35:42;7.57;;;4.30;;
62990;SDS011;49084;48.204;16.202;2023-02-27T17:38:08;10.15;;;4.38;;
62990;SDS011;49084;48.204;16.202;2023-02-27T17:40:35;13.57;;;6.90;;
62990;SDS011;49084;48.204;16.202;2023-02-27T17:43:03;10.77;;;7.28;;
62990;SDS011;49084;48.204;16.202;2023-02-27T17:45:29;9.93;;;5.03;;
62990;SDS011;49084;48.204;16.202;2023-02-27T17:47:55;11.15;;;5.07;;
62990;SDS011;49084;48.204;16.202;2023-02-27T17:50:21;11.95;;;6.78;;
62990;SDS011;49084;48.204;16.202;2023-02-27T17:52:47;8.93;;;5.40;;
62990;SDS011;49084;48.204;16.202;2023-02-27T17:55:13;10.57;;;5.43;;
62990;SDS011;49084;48.204;16.202;2023-02-27T17:57:40;9.32;;;5.20;;
62990;SDS011;49084;48.204;16.202;2023-02-27T18:00:10;7.20;;;4.20;;
62990;SDS011;49084;48.204;16.202;2023-02-27T18:02:42;9.68;;;5.00;;
62990;SDS011;49084;48.204;16.202;2023-02-27T18:05:10;9.38;;;5.30;;
62990;SDS011;49084;48.204;16.202;2023-02-27T18:07:36;7.72;;;4.57;;